Terminal Aerodrome Forecast
Issued by NWS Wilmington, OH

Home | Current Version | Previous Version | Text Only | Print | Product List | Glossary On
Versions: 1 2 3 4 5 6 7 8 9 10 11 12 13 14 15 16 17 18
000
FTUS41 KILN 010500
TAFDAY
TAF
KDAY 010527Z 0106/0206 00000KT P6SM FEW050
      TEMPO 0109/0112 5SM BR
     FM011400 07003KT P6SM FEW040
     FM011700 03005KT P6SM BKN060
     FM020000 06004KT P6SM VCTS BKN060CB
     FM020400 10003KT P6SM VCSH SCT060 BKN250=

USA.gov is the U.S. government's official web portal to all federal, state and local government web resources and services.